createdAt,value
2018-12-29T00:00:00.904Z,99921.44
2018-12-29T00:02:29.728Z,99915.84
2018-12-29T00:04:58.404Z,99923.36
2018-12-29T00:07:27.081Z,99927.20
2018-12-29T00:09:55.801Z,99943.66
2018-12-29T00:12:24.560Z,99948.30
2018-12-29T00:14:55.066Z,99947.15
2018-12-29T00:17:23.796Z,99943.56
2018-12-29T00:19:52.482Z,99941.12
2018-12-29T00:22:21.166Z,99942.80
2018-12-29T00:24:50.021Z,99947.19
2018-12-29T00:27:18.703Z,99946.89
2018-12-29T00:29:47.379Z,99942.30
2018-12-29T00:32:16.305Z,99937.56
2018-12-29T00:34:44.988Z,99933.64
2018-12-29T00:37:13.684Z,99942.05
2018-12-29T00:39:42.774Z,99939.00
2018-12-29T00:42:11.438Z,99931.02
2018-12-29T00:44:40.129Z,99941.47
2018-12-29T00:47:08.944Z,99947.98
2018-12-29T00:49:37.625Z,99947.84
2018-12-29T00:52:06.294Z,99944.74
2018-12-29T00:54:35.124Z,99943.88
2018-12-29T00:57:03.843Z,99935.94
2018-12-29T00:59:35.576Z,99937.83
2018-12-29T01:02:04.441Z,99936.66
2018-12-29T01:04:33.120Z,99930.91
2018-12-29T01:07:01.807Z,99926.36
2018-12-29T01:09:30.808Z,99917.72
2018-12-29T01:11:59.485Z,99915.33
2018-12-29T01:14:28.161Z,99917.57
2018-12-29T01:16:56.937Z,99920.52
2018-12-29T01:19:25.626Z,99921.42
2018-12-29T01:21:54.310Z,99919.63
2018-12-29T01:24:23.339Z,99924.84
2018-12-29T01:26:52.026Z,99924.05
2018-12-29T01:29:22.176Z,99915.76
2018-12-29T01:31:51.121Z,99913.66
2018-12-29T01:34:19.817Z,99914.19
2018-12-29T01:36:48.496Z,99910.81
2018-12-29T01:39:17.333Z,99908.77
2018-12-29T01:41:46.011Z,99908.24
2018-12-29T01:44:14.901Z,99904.88
2018-12-29T01:46:43.642Z,99904.88
2018-12-29T01:49:12.667Z,99891.89
2018-12-29T01:51:41.336Z,99895.26
2018-12-29T01:54:10.088Z,99894.22
2018-12-29T01:56:38.768Z,99892.37
2018-12-29T01:59:07.444Z,99894.17
2018-12-29T02:01:36.436Z,99893.13
2018-12-29T02:04:05.235Z,99886.36
2018-12-29T02:06:33.906Z,99886.59
2018-12-29T02:09:02.850Z,99885.81
2018-12-29T02:11:31.531Z,99877.95
2018-12-29T02:14:00.224Z,99877.52
2018-12-29T02:16:29.109Z,99874.43
2018-12-29T02:18:57.728Z,99881.76
2018-12-29T02:21:26.414Z,99885.94
2018-12-29T02:23:55.158Z,99878.66
2018-12-29T02:26:23.837Z,99877.13
2018-12-29T02:28:52.529Z,99874.03
2018-12-29T02:31:21.363Z,99875.30
2018-12-29T02:33:50.095Z,99878.17
2018-12-29T02:36:18.783Z,99883.38
2018-12-29T02:38:47.648Z,99882.31
2018-12-29T02:41:16.327Z,99880.22
2018-12-29T02:43:44.994Z,99882.55
2018-12-29T02:46:13.722Z,99878.91
2018-12-29T02:48:42.511Z,99882.03
2018-12-29T02:51:11.193Z,99879.72
2018-12-29T02:53:39.915Z,99877.66
2018-12-29T02:56:08.599Z,99881.05
2018-12-29T02:58:37.297Z,99882.08
2018-12-29T03:01:06.114Z,99879.23
2018-12-29T03:03:34.794Z,99879.75
2018-12-29T03:06:03.511Z,99871.67
2018-12-29T03:08:32.315Z,99881.31
2018-12-29T03:11:00.997Z,99880.01
2018-12-29T03:13:29.663Z,99877.41
2018-12-29T03:15:58.722Z,99874.55
2018-12-29T03:18:27.367Z,99872.21
2018-12-29T03:20:56.050Z,99869.85
2018-12-29T03:23:24.860Z,99873.24
2018-12-29T03:25:53.544Z,99869.33
2018-12-29T03:28:22.226Z,99869.34
2018-12-29T03:30:51.009Z,99866.50
2018-12-29T03:33:19.663Z,99864.14
2018-12-29T03:35:48.344Z,99858.16
2018-12-29T03:38:17.296Z,99867.02
2018-12-29T03:40:45.967Z,99862.59
2018-12-29T03:43:14.658Z,99859.73
2018-12-29T03:45:49.047Z,99876.34
2018-12-29T03:48:13.799Z,99874.53
2018-12-29T03:50:42.486Z,99874.02
2018-12-29T03:53:11.567Z,99876.87
2018-12-29T03:55:40.246Z,99867.02
2018-12-29T03:58:08.932Z,99869.61
2018-12-29T04:00:37.817Z,99873.74
2018-12-29T04:03:06.505Z,99870.91
2018-12-29T04:05:35.206Z,99876.90
2018-12-29T04:08:05.406Z,99878.17
2018-12-29T04:10:34.097Z,99876.11
2018-12-29T04:13:02.760Z,99881.30
2018-12-29T04:15:31.566Z,99885.44
2018-12-29T04:18:00.253Z,99875.83
2018-12-29T04:20:28.958Z,99880.23
2018-12-29T04:22:57.835Z,99888.82
2018-12-29T04:25:26.511Z,99886.97
2018-12-29T04:27:55.202Z,99892.42
2018-12-29T04:30:23.990Z,99892.69
2018-12-29T04:32:52.661Z,99896.08
2018-12-29T04:35:21.344Z,99894.50
2018-12-29T04:37:50.205Z,99897.38
2018-12-29T04:40:18.885Z,99896.08
2018-12-29T04:42:47.575Z,99895.30
2018-12-29T04:45:16.426Z,99897.91
2018-12-29T04:47:46.196Z,99896.61
2018-12-29T04:50:14.882Z,99892.70
2018-12-29T04:52:44.012Z,99900.22
2018-12-29T04:55:12.680Z,99898.13
2018-12-29T04:57:41.358Z,99896.55
2018-12-29T05:00:10.194Z,99900.71
2018-12-29T05:02:38.889Z,99903.25
2018-12-29T05:05:07.631Z,99913.14
2018-12-29T05:07:36.747Z,99914.19
2018-12-29T05:10:07.373Z,99922.17
2018-12-29T05:12:36.046Z,99930.72
2018-12-29T05:15:05.405Z,99928.37
2018-12-29T05:17:34.082Z,99927.47
2018-12-29T05:20:02.764Z,99934.98
2018-12-29T05:22:31.684Z,99938.33
2018-12-29T05:25:00.357Z,99938.59
2018-12-29T05:27:29.042Z,99942.98
2018-12-29T05:29:58.083Z,99945.88
2018-12-29T05:32:26.770Z,99949.33
2018-12-29T05:34:55.454Z,99954.60
2018-12-29T05:37:24.456Z,99954.10
2018-12-29T05:39:53.158Z,99959.25
2018-12-29T05:42:21.831Z,99964.23
2018-12-29T05:44:50.657Z,99973.22
2018-12-29T05:47:19.337Z,99969.66
2018-12-29T05:49:48.028Z,99966.61
2018-12-29T05:52:16.885Z,99966.33
2018-12-29T05:54:45.564Z,99968.92
2018-12-29T05:57:14.248Z,99968.08
2018-12-29T05:59:43.123Z,99976.63
2018-12-29T06:02:11.767Z,99979.25
2018-12-29T06:04:40.447Z,99982.53
2018-12-29T06:07:09.170Z,99984.31
2018-12-29T06:09:37.843Z,99981.99
2018-12-29T06:12:07.030Z,99978.10
2018-12-29T06:14:35.800Z,99985.72
2018-12-29T06:17:04.684Z,99984.44
2018-12-29T06:19:33.374Z,99987.56
2018-12-29T06:22:02.224Z,99984.76
2018-12-29T06:24:30.917Z,99989.42
2018-12-29T06:26:59.611Z,99991.77
2018-12-29T06:29:28.531Z,99998.57
2018-12-29T06:31:57.205Z,99998.32
2018-12-29T06:34:25.893Z,100000.72
2018-12-29T06:36:54.622Z,100004.64
2018-12-29T06:39:23.308Z,100006.17
2018-12-29T06:41:51.989Z,99994.53
2018-12-29T06:44:20.933Z,99997.98
2018-12-29T06:46:49.609Z,99996.73
2018-12-29T06:49:18.291Z,99996.22
2018-12-29T06:51:47.287Z,99988.95
2018-12-29T06:54:15.957Z,99986.34
2018-12-29T06:56:44.645Z,99979.83
2018-12-29T06:59:13.568Z,99980.09
2018-12-29T07:01:42.237Z,99982.43
2018-12-29T07:04:10.918Z,99980.84
2018-12-29T07:06:39.636Z,99981.63
2018-12-29T07:09:08.342Z,99985.30
2018-12-29T07:11:38.621Z,99998.56
2018-12-29T07:14:08.036Z,99992.56
2018-12-29T07:16:42.237Z,99994.14
2018-12-29T07:19:07.094Z,99988.94
2018-12-29T07:21:36.146Z,99990.52
2018-12-29T07:24:04.828Z,99990.75
2018-12-29T07:26:33.509Z,99997.53
2018-12-29T07:29:02.266Z,99992.33
2018-12-29T07:31:30.950Z,99986.34
2018-12-29T07:34:00.045Z,99984.00
2018-12-29T07:36:28.867Z,99983.22
2018-12-29T07:38:57.548Z,99983.97
2018-12-29T07:41:26.232Z,99988.65
2018-12-29T07:43:55.202Z,99992.79
2018-12-29T07:46:23.893Z,99987.05
2018-12-29T07:48:52.579Z,99989.94
2018-12-29T07:51:21.296Z,99990.45
2018-12-29T07:53:49.986Z,99992.77
2018-12-29T07:56:18.668Z,99997.69
2018-12-29T07:58:47.618Z,99997.39
2018-12-29T08:01:16.301Z,99995.84
2018-12-29T08:03:45.006Z,99998.95
2018-12-29T08:06:13.860Z,100003.07
2018-12-29T08:08:42.556Z,100003.58
2018-12-29T08:11:11.241Z,99995.05
2018-12-29T08:13:39.989Z,99997.09
2018-12-29T08:16:08.741Z,99996.59
2018-12-29T08:18:37.434Z,100001.55
2018-12-29T08:21:06.521Z,100003.40
2018-12-29T08:23:35.585Z,99998.70
2018-12-29T08:26:04.267Z,100006.48
2018-12-29T08:28:33.014Z,99987.47
2018-12-29T08:31:01.700Z,99994.75
2018-12-29T08:33:30.390Z,100000.73
2018-12-29T08:35:59.231Z,99999.16
2018-12-29T08:38:27.949Z,100002.54
2018-12-29T08:40:56.616Z,100003.03
2018-12-29T08:43:25.697Z,100001.92
2018-12-29T08:45:54.507Z,100005.58
2018-12-29T08:48:23.166Z,99999.03
2018-12-29T08:50:52.168Z,100000.02
2018-12-29T08:53:20.858Z,99993.01
2018-12-29T08:55:49.527Z,99990.16
2018-12-29T08:58:18.245Z,99993.28
2018-12-29T09:00:46.924Z,99993.44
2018-12-29T09:03:15.609Z,99999.95
2018-12-29T09:05:44.426Z,99997.60
2018-12-29T09:08:13.114Z,99993.13
2018-12-29T09:10:41.802Z,99998.84
2018-12-29T09:13:10.895Z,99997.99
2018-12-29T09:15:39.584Z,99994.09
2018-12-29T09:18:09.381Z,99999.75
2018-12-29T09:20:38.229Z,99993.91
2018-12-29T09:23:06.939Z,99999.84
2018-12-29T09:25:35.649Z,99991.20
2018-12-29T09:28:04.515Z,99994.33
2018-12-29T09:30:33.198Z,99997.42
2018-12-29T09:33:01.870Z,100000.52
2018-12-29T09:35:30.675Z,100006.55
2018-12-29T09:37:59.375Z,100012.56
2018-12-29T09:40:28.063Z,100009.61
2018-12-29T09:42:56.823Z,100010.14
2018-12-29T09:45:25.518Z,100007.46
2018-12-29T09:47:54.205Z,100010.59
2018-12-29T09:50:23.350Z,100005.49
2018-12-29T09:52:51.978Z,99997.95
2018-12-29T09:55:20.660Z,99992.61
2018-12-29T09:57:49.662Z,100007.91
2018-12-29T10:00:18.440Z,99996.80
2018-12-29T10:02:47.135Z,99992.44
2018-12-29T10:05:16.183Z,99993.87
2018-12-29T10:07:44.882Z,99996.13
2018-12-29T10:10:13.566Z,99992.36
2018-12-29T10:12:42.381Z,99992.63
2018-12-29T10:15:11.109Z,99991.89
2018-12-29T10:17:39.738Z,99982.77
2018-12-29T10:20:08.619Z,99989.20
2018-12-29T10:22:37.311Z,99978.36
2018-12-29T10:25:06.180Z,99976.38
2018-12-29T10:27:35.127Z,99980.95
2018-12-29T10:30:04.273Z,99979.09
2018-12-29T10:32:32.965Z,99970.89
2018-12-29T10:35:01.844Z,99958.16
2018-12-29T10:37:30.532Z,99966.00
2018-12-29T10:39:59.284Z,99969.50
2018-12-29T10:42:28.123Z,99960.14
2018-12-29T10:44:56.819Z,99959.80
2018-12-29T10:47:25.491Z,99953.78
2018-12-29T10:49:54.673Z,99949.39
2018-12-29T10:52:23.444Z,99943.97
2018-12-29T10:54:52.102Z,99936.45
2018-12-29T10:57:20.933Z,99936.81
2018-12-29T10:59:51.212Z,99937.10
2018-12-29T11:02:19.891Z,99944.34
2018-12-29T11:04:48.913Z,99944.81
2018-12-29T11:07:17.693Z,99948.87
2018-12-29T11:09:46.435Z,99939.82
2018-12-29T11:12:15.396Z,99940.77
2018-12-29T11:14:44.145Z,99952.65
2018-12-29T11:17:13.099Z,99953.52
2018-12-29T11:19:41.860Z,99958.52
2018-12-29T11:22:12.631Z,99969.29
2018-12-29T11:24:45.973Z,99968.09
2018-12-29T11:27:14.652Z,99979.86
2018-12-29T11:29:44.361Z,99978.29
2018-12-29T11:32:13.139Z,99973.97
2018-12-29T11:34:41.826Z,99978.41
2018-12-29T11:43:01.800Z,99995.23
2018-12-29T11:45:33.929Z,99998.53
2018-12-29T11:48:02.584Z,100001.70
2018-12-29T11:50:31.491Z,100007.78
2018-12-29T11:53:00.177Z,100003.08
2018-12-29T11:55:28.890Z,100006.47
2018-12-29T11:57:57.887Z,100001.88
2018-12-29T12:00:26.584Z,100006.92
2018-12-29T12:02:55.274Z,100010.09
2018-12-29T12:05:24.102Z,100008.62
2018-12-29T12:07:52.795Z,100019.30
2018-12-29T12:10:21.761Z,100017.42
2018-12-29T12:12:50.720Z,100015.36
2018-12-29T12:15:19.400Z,100020.47
2018-12-29T12:17:48.089Z,100026.38
2018-12-29T12:20:17.178Z,100026.66
2018-12-29T12:22:46.043Z,100011.17
2018-12-29T12:25:15.874Z,100031.80
2018-12-29T12:27:44.895Z,100040.33
2018-12-29T12:30:13.597Z,100037.42
2018-12-29T12:32:42.319Z,100044.66
2018-12-29T12:35:11.360Z,100044.58
2018-12-29T12:37:40.046Z,100051.22
2018-12-29T12:40:08.737Z,100050.27
2018-12-29T12:42:37.566Z,100051.64
2018-12-29T12:45:06.242Z,100056.98
2018-12-29T12:47:34.995Z,100055.67
2018-12-29T12:50:03.725Z,100066.91
2018-12-29T12:52:35.209Z,100066.89
2018-12-29T12:55:09.872Z,100072.92
2018-12-29T12:57:50.278Z,100069.78
2018-12-29T13:00:21.089Z,100070.48
2018-12-29T13:02:49.760Z,100085.62
2018-12-29T13:05:18.511Z,100077.47
2018-12-29T13:07:47.385Z,100091.32
2018-12-29T13:10:16.085Z,100097.56
2018-12-29T13:12:48.354Z,100092.65
2018-12-29T13:15:21.738Z,100103.09
2018-12-29T13:17:50.592Z,100101.84
2018-12-29T13:20:19.278Z,100102.09
2018-12-29T13:22:48.188Z,100100.00
2018-12-29T13:25:16.872Z,100107.02
2018-12-29T13:27:45.780Z,100100.75
2018-12-29T13:30:14.826Z,100105.47
2018-12-29T13:32:46.266Z,100112.78
2018-12-29T13:35:16.006Z,100119.31
2018-12-29T13:37:44.777Z,100115.63
2018-12-29T13:40:13.615Z,100122.91
2018-12-29T13:42:42.430Z,100121.65
2018-12-29T13:45:15.597Z,100125.13
2018-12-29T13:47:50.484Z,100125.52
2018-12-29T13:50:29.383Z,100130.24
2018-12-29T13:52:58.253Z,100135.93
2018-12-29T13:55:26.978Z,100138.06
2018-12-29T13:57:55.780Z,100144.91
2018-12-29T14:00:27.446Z,100145.18
2018-12-29T14:02:56.156Z,100146.57
2018-12-29T14:05:25.623Z,100150.16
2018-12-29T14:07:57.392Z,100147.67
2018-12-29T14:10:26.176Z,100151.12
2018-12-29T14:13:01.168Z,100149.95
2018-12-29T14:15:43.890Z,100154.56
2018-12-29T14:18:15.374Z,100158.77
2018-12-29T14:20:53.942Z,100159.33
2018-12-29T14:23:25.162Z,100160.62
2018-12-29T14:25:59.595Z,100161.72
2018-12-29T14:28:44.734Z,100167.22
2018-12-29T14:31:19.882Z,100168.83
2018-12-29T14:33:56.559Z,100169.11
2018-12-29T14:36:25.357Z,100166.75
2018-12-29T14:38:54.390Z,100171.16
2018-12-29T14:41:23.566Z,100169.86
2018-12-29T14:43:52.322Z,100169.63
2018-12-29T14:46:22.801Z,100177.16
2018-12-29T14:49:00.469Z,100186.59
2018-12-29T14:51:30.358Z,100185.08
2018-12-29T14:54:03.609Z,100187.48
2018-12-29T14:56:32.662Z,100192.44
2018-12-29T14:59:01.382Z,100195.33
2018-12-29T15:01:30.210Z,100195.33
2018-12-29T15:03:59.543Z,100200.55
2018-12-29T15:06:28.301Z,100203.15
2018-12-29T15:09:00.351Z,100209.16
2018-12-29T15:11:29.382Z,100211.48
2018-12-29T15:13:58.139Z,100213.11
2018-12-29T15:16:26.811Z,100224.05
2018-12-29T15:18:56.769Z,100230.30
2018-12-29T15:21:25.934Z,100226.63
2018-12-29T15:23:58.213Z,100230.02
2018-12-29T15:26:28.003Z,100236.80
2018-12-29T15:28:56.709Z,100240.47
2018-12-29T15:31:25.491Z,100239.67
2018-12-29T15:33:54.315Z,100249.06
2018-12-29T15:36:25.444Z,100248.53
2018-12-29T15:38:54.159Z,100257.09
2018-12-29T15:41:23.091Z,100261.00
2018-12-29T15:43:52.075Z,100271.96
2018-12-29T15:46:20.800Z,100276.38
2018-12-29T15:48:51.114Z,100277.13
2018-12-29T15:51:20.631Z,100276.88
2018-12-29T15:53:49.345Z,100280.73
2018-12-29T15:56:18.472Z,100280.21
2018-12-29T15:58:47.273Z,100285.97
2018-12-29T16:01:16.168Z,100297.13
2018-12-29T16:03:45.408Z,100294.00
2018-12-29T16:06:14.143Z,100295.00
2018-12-29T16:08:43.810Z,100303.05
2018-12-29T16:11:14.106Z,100306.48
2018-12-29T16:13:43.114Z,100302.81
2018-12-29T16:16:11.841Z,100310.05
2018-12-29T16:18:40.812Z,100311.67
2018-12-29T16:21:09.490Z,100315.52
2018-12-29T16:23:38.190Z,100316.81
2018-12-29T16:26:12.666Z,100318.16
2018-12-29T16:28:37.814Z,100327.23
2018-12-29T16:31:06.816Z,100333.73
2018-12-29T16:33:36.266Z,100329.80
2018-12-29T16:36:05.131Z,100331.39
2018-12-29T16:38:33.827Z,100332.17
2018-12-29T16:41:02.829Z,100341.08
2018-12-29T16:43:31.588Z,100336.88
2018-12-29T16:46:00.305Z,100337.11
2018-12-29T16:48:29.234Z,100338.39
2018-12-29T16:50:58.095Z,100342.23
2018-12-29T16:53:29.409Z,100340.95
2018-12-29T16:55:57.469Z,100343.03
2018-12-29T16:58:26.175Z,100346.09
2018-12-29T17:00:55.244Z,100352.84
2018-12-29T17:03:24.301Z,100348.11
2018-12-29T17:05:52.985Z,100349.67
2018-12-29T17:08:21.681Z,100348.19
2018-12-29T17:10:50.878Z,100352.61
2018-12-29T17:13:19.601Z,100348.78
2018-12-29T17:15:48.306Z,100347.42
2018-12-29T17:18:17.091Z,100348.70
2018-12-29T17:20:45.854Z,100351.30
2018-12-29T17:23:14.566Z,100345.75
2018-12-29T17:25:43.604Z,100349.43
2018-12-29T17:28:12.290Z,100344.82
2018-12-29T17:30:41.001Z,100351.93
2018-12-29T17:33:09.865Z,100354.58
2018-12-29T17:35:38.563Z,100357.70
2018-12-29T17:38:07.268Z,100362.75
2018-12-29T17:40:36.163Z,100368.23
2018-12-29T17:43:04.829Z,100376.02
2018-12-29T17:45:33.497Z,100375.13
2018-12-29T17:48:02.582Z,100381.65
2018-12-29T17:50:31.653Z,100383.11
2018-12-29T17:53:00.353Z,100387.25
2018-12-29T17:55:29.104Z,100391.50
2018-12-29T17:57:57.809Z,100390.63
2018-12-29T18:00:27.587Z,100389.53
2018-12-29T18:02:56.640Z,100400.48
2018-12-29T18:05:25.334Z,100398.69
2018-12-29T18:07:54.028Z,100407.80
2018-12-29T18:10:23.077Z,100410.50
2018-12-29T18:12:51.781Z,100408.12
2018-12-29T18:15:20.474Z,100406.38
2018-12-29T18:17:49.384Z,100404.45
2018-12-29T18:20:18.072Z,100406.00
2018-12-29T18:22:46.761Z,100404.62
2018-12-29T18:25:15.623Z,100413.17
2018-12-29T18:27:44.587Z,100418.91
2018-12-29T18:30:13.311Z,100420.66
2018-12-29T18:32:42.255Z,100417.86
2018-12-29T18:35:10.942Z,100426.39
2018-12-29T18:37:39.644Z,100418.29
2018-12-29T18:40:08.554Z,100423.31
2018-12-29T18:42:37.285Z,100419.61
2018-12-29T18:45:06.765Z,100423.42
2018-12-29T18:47:35.552Z,100422.06
2018-12-29T18:50:05.339Z,100420.13
2018-12-29T18:52:34.081Z,100424.69
2018-12-29T18:55:03.202Z,100417.94
2018-12-29T18:57:31.886Z,100419.48
2018-12-29T19:00:00.582Z,100420.39
2018-12-29T19:02:29.513Z,100416.13
2018-12-29T19:04:58.207Z,100417.18
2018-12-29T19:07:27.099Z,100419.30
2018-12-29T19:09:55.807Z,100420.88
2018-12-29T19:12:24.521Z,100422.88
2018-12-29T19:14:53.201Z,100429.85
2018-12-29T19:17:22.233Z,100428.89
2018-12-29T19:19:51.317Z,100426.23
2018-12-29T19:22:19.989Z,100422.38
2018-12-29T19:24:48.751Z,100420.34
2018-12-29T19:27:17.460Z,100427.37
2018-12-29T19:29:46.228Z,100427.37
2018-12-29T19:32:15.541Z,100422.94
2018-12-29T19:34:44.855Z,100417.59
2018-12-29T19:37:13.946Z,100418.92
2018-12-29T19:39:43.260Z,100414.77
2018-12-29T19:42:11.939Z,100413.86
2018-12-29T19:44:40.620Z,100420.88
2018-12-29T19:47:09.750Z,100421.44
2018-12-29T19:49:38.445Z,100421.19
2018-12-29T19:52:07.497Z,100418.34
2018-12-29T19:54:36.236Z,100430.20
2018-12-29T19:57:05.503Z,100422.56
2018-12-29T19:59:34.572Z,100429.77
2018-12-29T20:02:03.773Z,100432.91
2018-12-29T20:04:32.610Z,100428.77
2018-12-29T20:07:01.475Z,100428.73
2018-12-29T20:09:30.219Z,100430.70
2018-12-29T20:11:59.192Z,100436.77
2018-12-29T20:14:27.866Z,100440.22
2018-12-29T20:16:56.593Z,100435.25
2018-12-29T20:19:25.285Z,100438.38
2018-12-29T20:21:53.994Z,100442.78
2018-12-29T20:24:23.099Z,100448.15
2018-12-29T20:26:51.799Z,100442.92
2018-12-29T20:29:20.532Z,100439.21
2018-12-29T20:31:49.645Z,100442.34
2018-12-29T20:34:18.388Z,100443.97
2018-12-29T20:36:47.540Z,100451.60
2018-12-29T20:39:16.673Z,100448.54
2018-12-29T20:41:45.375Z,100445.63
2018-12-29T20:44:14.085Z,100452.44
2018-12-29T20:46:43.299Z,100458.94
2018-12-29T20:49:12.325Z,100459.62
2018-12-29T20:51:41.080Z,100457.78
2018-12-29T20:54:09.928Z,100449.41
2018-12-29T20:56:38.612Z,100453.22
2018-12-29T20:59:07.298Z,100451.67
2018-12-29T21:01:36.158Z,100454.73
2018-12-29T21:04:05.042Z,100452.76
2018-12-29T21:06:33.750Z,100445.59
2018-12-29T21:09:02.621Z,100442.17
2018-12-29T21:11:31.335Z,100444.25
2018-12-29T21:14:00.024Z,100446.41
2018-12-29T21:16:28.861Z,100447.75
2018-12-29T21:18:57.542Z,100449.56
2018-12-29T21:21:26.241Z,100448.52
2018-12-29T21:23:55.118Z,100452.62
2018-12-29T21:26:23.795Z,100453.81
2018-12-29T21:28:52.496Z,100442.82
2018-12-29T21:31:21.886Z,100441.16
2018-12-29T21:33:50.615Z,100438.38
2018-12-29T21:36:19.297Z,100437.30
2018-12-29T21:38:48.202Z,100434.98
2018-12-29T21:41:16.902Z,100438.33
2018-12-29T21:43:45.752Z,100431.81
2018-12-29T21:46:14.562Z,100435.81
2018-12-29T21:48:43.252Z,100443.23
2018-12-29T21:51:11.940Z,100437.66
2018-12-29T21:53:40.734Z,100438.23
2018-12-29T21:56:09.382Z,100432.14
2018-12-29T21:58:38.368Z,100435.08
2018-12-29T22:01:07.333Z,100438.30
2018-12-29T22:03:36.012Z,100433.36
2018-12-29T22:06:04.702Z,100435.55
2018-12-29T22:08:33.542Z,100439.09
2018-12-29T22:11:02.486Z,100436.26
2018-12-29T22:13:31.147Z,100438.33
2018-12-29T22:15:59.963Z,100436.88
2018-12-29T22:18:28.648Z,100435.87
2018-12-29T22:20:57.337Z,100431.58
2018-12-29T22:23:26.313Z,100433.11
2018-12-29T22:25:55.193Z,100431.66
2018-12-29T22:28:23.888Z,100430.48
2018-12-29T22:30:52.732Z,100423.62
2018-12-29T22:33:21.421Z,100426.21
2018-12-29T22:35:50.112Z,100424.88
2018-12-29T22:38:19.556Z,100425.92
2018-12-29T22:40:48.280Z,100431.42
2018-12-29T22:43:17.022Z,100429.81
2018-12-29T22:45:45.821Z,100419.26
2018-12-29T22:48:14.507Z,100419.80
2018-12-29T22:50:43.206Z,100419.70
2018-12-29T22:53:12.003Z,100412.66
2018-12-29T22:55:40.686Z,100406.19
2018-12-29T22:58:09.368Z,100408.83
2018-12-29T23:00:39.809Z,100406.56
2018-12-29T23:03:08.681Z,100398.53
2018-12-29T23:05:37.365Z,100399.16
2018-12-29T23:08:06.321Z,100397.63
2018-12-29T23:10:35.001Z,100393.75
2018-12-29T23:13:04.258Z,100400.58
2018-12-29T23:15:33.096Z,100391.99
2018-12-29T23:18:01.790Z,100390.94
2018-12-29T23:20:30.883Z,100385.66
2018-12-29T23:22:59.754Z,100384.19
2018-12-29T23:25:28.466Z,100385.53
2018-12-29T23:27:57.127Z,100383.86
2018-12-29T23:30:26.223Z,100376.72
2018-12-29T23:32:54.937Z,100376.80
2018-12-29T23:35:23.619Z,100374.56
2018-12-29T23:37:52.462Z,100370.98
2018-12-29T23:40:21.141Z,100374.77
2018-12-29T23:42:49.893Z,100368.21
2018-12-29T23:45:18.628Z,100367.77
2018-12-29T23:47:47.315Z,100362.54
2018-12-29T23:50:16.173Z,100364.49
2018-12-29T23:52:45.274Z,100367.77
2018-12-29T23:55:14.341Z,100367.54
2018-12-29T23:57:43.034Z,100375.60
